createdAt,value
2018-08-03T00:00:12.768Z,462.40
2018-08-03T00:02:41.982Z,471.13
2018-08-03T00:05:11.215Z,455.80
2018-08-03T00:07:40.610Z,455.27
2018-08-03T00:10:09.678Z,438.87
2018-08-03T00:12:45.419Z,472.80
2018-08-03T00:15:14.559Z,452.40
2018-08-03T00:17:43.839Z,458.17
2018-08-03T00:20:13.055Z,442.43
2018-08-03T00:22:42.403Z,452.33
2018-08-03T00:25:11.555Z,455.37
2018-08-03T00:27:40.687Z,469.53
2018-08-03T00:30:09.847Z,447.83
2018-08-03T00:32:39.185Z,448.17
2018-08-03T00:35:08.306Z,437.33
2018-08-03T00:37:37.494Z,452.47
2018-08-03T00:40:06.687Z,431.20
2018-08-03T00:42:35.778Z,425.47
2018-08-03T00:45:05.766Z,460.70
2018-08-03T00:47:35.233Z,443.47
2018-08-03T00:50:04.840Z,434.00
2018-08-03T00:52:34.089Z,435.57
2018-08-03T00:55:03.271Z,415.63
2018-08-03T00:57:32.522Z,443.67
2018-08-03T01:00:01.687Z,438.60
2018-08-03T01:02:30.786Z,411.53
2018-08-03T01:04:59.949Z,411.67
2018-08-03T01:07:29.139Z,426.13
2018-08-03T01:09:58.207Z,410.07
2018-08-03T01:12:27.404Z,424.40
2018-08-03T01:14:56.482Z,412.87
2018-08-03T01:17:25.674Z,390.40
2018-08-03T01:19:54.975Z,394.60
2018-08-03T01:22:24.196Z,392.53
2018-08-03T01:24:53.692Z,396.60
2018-08-03T01:27:22.942Z,400.17
2018-08-03T01:29:51.901Z,389.50
2018-08-03T01:32:21.113Z,381.40
2018-08-03T01:34:50.367Z,387.20
2018-08-03T01:37:19.410Z,395.93
2018-08-03T01:39:49.251Z,414.13
2018-08-03T01:42:18.275Z,384.60
2018-08-03T01:44:47.598Z,380.77
2018-08-03T01:47:16.927Z,380.67
2018-08-03T01:49:46.026Z,386.73
2018-08-03T01:52:15.146Z,382.23
2018-08-03T01:54:43.984Z,402.63
2018-08-03T01:57:12.950Z,389.53
2018-08-03T01:59:42.184Z,395.53
2018-08-03T02:02:11.395Z,395.60
2018-08-03T02:04:40.571Z,399.20
2018-08-03T02:07:09.813Z,393.50
2018-08-03T02:09:38.983Z,358.13
2018-08-03T02:12:08.782Z,377.93
2018-08-03T02:14:38.081Z,405.57
2018-08-03T02:17:07.193Z,395.40
2018-08-03T02:19:36.346Z,393.97
2018-08-03T02:22:05.411Z,402.93
2018-08-03T02:24:34.477Z,387.33
2018-08-03T02:27:03.626Z,387.27
2018-08-03T02:29:33.206Z,415.20
2018-08-03T02:32:01.934Z,385.93
2018-08-03T02:34:30.995Z,385.13
2018-08-03T02:37:00.081Z,400.60
2018-08-03T02:39:29.151Z,380.17
2018-08-03T02:41:58.246Z,364.80
2018-08-03T02:44:27.476Z,376.20
2018-08-03T02:46:56.551Z,368.33
2018-08-03T02:49:25.656Z,361.20
2018-08-03T02:51:54.807Z,357.60
2018-08-03T02:54:24.024Z,356.40
2018-08-03T02:56:53.174Z,381.50
2018-08-03T02:59:22.220Z,361.77
2018-08-03T03:01:51.258Z,358.23
2018-08-03T03:04:20.448Z,366.23
2018-08-03T03:06:49.630Z,353.37
2018-08-03T03:09:18.692Z,353.50
2018-08-03T03:11:47.806Z,356.07
2018-08-03T03:14:17.031Z,345.57
2018-08-03T03:16:46.365Z,350.50
2018-08-03T03:19:15.486Z,358.77
2018-08-03T03:21:44.702Z,363.03
2018-08-03T03:24:14.231Z,340.07
2018-08-03T03:26:43.850Z,356.07
2018-08-03T03:29:12.992Z,358.80
2018-08-03T03:31:42.195Z,335.33
2018-08-03T03:34:11.523Z,356.87
2018-08-03T03:36:40.642Z,332.67
2018-08-03T03:39:12.324Z,342.90
2018-08-03T03:41:41.622Z,352.93
2018-08-03T03:44:10.922Z,336.97
2018-08-03T03:46:40.044Z,358.07
2018-08-03T03:49:09.235Z,349.47
2018-08-03T03:51:38.529Z,336.40
2018-08-03T03:54:07.749Z,359.23
2018-08-03T03:56:36.930Z,366.67
2018-08-03T03:59:06.219Z,374.27
2018-08-03T04:01:35.417Z,365.80
2018-08-03T04:04:04.627Z,356.33
2018-08-03T04:06:33.920Z,372.33
2018-08-03T04:09:03.138Z,379.07
2018-08-03T04:11:32.407Z,343.37
2018-08-03T04:14:01.666Z,357.77
2018-08-03T04:16:30.824Z,356.83
2018-08-03T04:18:59.945Z,342.80
2018-08-03T04:21:29.030Z,355.43
2018-08-03T04:23:58.122Z,369.90
2018-08-03T04:26:27.306Z,362.70
2018-08-03T04:28:56.707Z,349.80
2018-08-03T04:31:26.178Z,374.60
2018-08-03T04:33:55.395Z,357.27
2018-08-03T04:36:24.551Z,366.03
2018-08-03T04:38:53.644Z,379.90
2018-08-03T04:41:22.774Z,383.97
2018-08-03T04:43:51.885Z,412.93
2018-08-03T04:46:21.198Z,421.97
2018-08-03T04:48:50.434Z,415.87
2018-08-03T04:51:19.480Z,434.73
2018-08-03T04:53:49.094Z,450.27
2018-08-03T04:56:18.830Z,501.87
2018-08-03T04:58:48.067Z,482.87
2018-08-03T05:01:17.547Z,521.93
2018-08-03T05:03:46.706Z,558.87
2018-08-03T05:06:15.874Z,567.97
2018-08-03T05:08:44.917Z,543.70
2018-08-03T05:11:14.208Z,581.03
2018-08-03T05:13:43.290Z,597.73
2018-08-03T05:16:12.366Z,691.00
2018-08-03T05:18:41.627Z,666.97
2018-08-03T05:21:10.724Z,650.90
2018-08-03T05:23:39.980Z,651.43
2018-08-03T05:26:09.236Z,631.83
2018-08-03T05:28:38.372Z,593.27
2018-08-03T05:31:08.255Z,583.90
2018-08-03T05:33:37.539Z,559.03
2018-08-03T05:36:06.706Z,551.53
2018-08-03T05:38:36.160Z,536.90
2018-08-03T05:41:05.236Z,572.87
2018-08-03T05:43:34.383Z,533.73
2018-08-03T05:46:03.724Z,501.30
2018-08-03T05:48:32.619Z,499.73
2018-08-03T05:51:01.620Z,483.17
2018-08-03T05:53:30.899Z,493.53
2018-08-03T05:56:00.199Z,501.00
2018-08-03T05:58:29.331Z,493.00
2018-08-03T06:00:58.724Z,525.83
2018-08-03T06:03:27.826Z,509.90
2018-08-03T06:05:57.623Z,503.00
2018-08-03T06:08:26.964Z,504.70
2018-08-03T06:10:56.480Z,518.53
2018-08-03T06:13:25.700Z,534.77
2018-08-03T06:15:54.908Z,527.70
2018-08-03T06:18:24.119Z,534.40
2018-08-03T06:20:53.451Z,507.03
2018-08-03T06:23:22.727Z,536.90
2018-08-03T06:25:51.988Z,535.33
2018-08-03T06:28:21.133Z,526.03
2018-08-03T06:30:50.255Z,543.97
2018-08-03T06:33:19.509Z,583.53
2018-08-03T06:35:48.718Z,597.33
2018-08-03T06:38:17.891Z,541.63
2018-08-03T06:40:46.950Z,601.87
2018-08-03T06:43:16.016Z,599.03
2018-08-03T06:45:45.260Z,606.70
2018-08-03T06:48:14.454Z,586.40
2018-08-03T06:50:43.824Z,606.40
2018-08-03T06:53:12.883Z,617.10
2018-08-03T06:55:42.056Z,591.77
2018-08-03T06:58:11.317Z,612.17
2018-08-03T07:00:40.550Z,617.87
2018-08-03T07:03:09.770Z,655.03
2018-08-03T07:05:38.976Z,666.37
2018-08-03T07:08:08.336Z,663.50
2018-08-03T07:10:37.554Z,695.13
2018-08-03T07:13:06.857Z,645.10
2018-08-03T07:15:36.131Z,693.83
2018-08-03T07:18:05.476Z,616.43
2018-08-03T07:20:34.796Z,661.30
2018-08-03T07:23:03.804Z,633.47
2018-08-03T07:25:33.014Z,672.77
2018-08-03T07:28:02.203Z,686.77
2018-08-03T07:30:31.499Z,726.40
2018-08-03T07:33:00.607Z,665.33
2018-08-03T07:35:29.692Z,660.80
2018-08-03T07:37:59.247Z,681.03
2018-08-03T07:40:28.443Z,714.77
2018-08-03T07:42:57.578Z,706.73
2018-08-03T07:45:26.715Z,681.43
2018-08-03T07:47:55.949Z,720.77
2018-08-03T07:50:25.489Z,686.83
2018-08-03T07:52:54.711Z,762.43
2018-08-03T07:55:24.629Z,790.37
2018-08-03T07:57:54.275Z,768.57
2018-08-03T08:00:23.398Z,824.47
2018-08-03T08:02:52.547Z,815.83
2018-08-03T08:05:21.764Z,780.60
2018-08-03T08:07:51.063Z,731.37
2018-08-03T08:10:20.297Z,756.67
2018-08-03T08:12:49.474Z,779.27
2018-08-03T08:15:18.742Z,778.57
2018-08-03T08:17:48.363Z,789.17
2018-08-03T08:20:17.467Z,784.77
2018-08-03T08:22:46.630Z,763.67
2018-08-03T08:25:16.195Z,780.97
2018-08-03T08:27:45.488Z,775.07
2018-08-03T08:30:14.717Z,832.40
2018-08-03T08:32:44.206Z,790.37
2018-08-03T08:35:13.622Z,769.43
2018-08-03T08:37:42.838Z,826.93
2018-08-03T08:40:11.646Z,827.07
2018-08-03T08:42:40.876Z,794.70
2018-08-03T08:45:10.543Z,826.43
2018-08-03T08:47:40.092Z,844.13
2018-08-03T08:50:09.839Z,842.27
2018-08-03T08:52:39.175Z,863.30
2018-08-03T08:55:08.347Z,817.93
2018-08-03T08:57:37.554Z,843.37
2018-08-03T09:00:06.944Z,842.17
2018-08-03T09:02:36.250Z,862.57
2018-08-03T09:05:05.784Z,849.13
2018-08-03T09:07:35.318Z,859.57
2018-08-03T09:10:04.589Z,855.03
2018-08-03T09:12:33.787Z,883.83
2018-08-03T09:15:02.978Z,862.23
2018-08-03T09:17:32.547Z,845.57
2018-08-03T09:20:01.763Z,873.80
2018-08-03T09:22:31.115Z,870.10
2018-08-03T09:25:00.279Z,886.37
2018-08-03T09:27:29.499Z,854.53
2018-08-03T09:29:58.751Z,858.00
2018-08-03T09:32:28.900Z,892.47
2018-08-03T09:34:58.016Z,860.90
2018-08-03T09:37:27.441Z,875.33
2018-08-03T09:39:56.682Z,846.77
2018-08-03T09:42:26.114Z,871.37
2018-08-03T09:44:55.271Z,869.90
2018-08-03T09:47:24.468Z,865.20
2018-08-03T09:49:53.902Z,832.93
2018-08-03T09:52:23.004Z,872.83
2018-08-03T09:54:52.455Z,887.50
2018-08-03T09:57:21.596Z,916.03
2018-08-03T09:59:50.918Z,865.83
2018-08-03T10:02:20.533Z,848.93
2018-08-03T10:04:49.904Z,843.57
2018-08-03T10:07:19.079Z,850.33
2018-08-03T10:09:48.253Z,824.63
2018-08-03T10:12:17.488Z,816.07
2018-08-03T10:14:46.703Z,867.47
2018-08-03T10:17:15.798Z,875.53
2018-08-03T10:19:45.303Z,899.87
2018-08-03T10:22:14.428Z,874.07
2018-08-03T10:24:43.347Z,876.77
2018-08-03T10:27:12.440Z,842.80
2018-08-03T10:29:41.847Z,909.67
2018-08-03T10:32:11.058Z,915.83
2018-08-03T10:34:40.507Z,929.67
2018-08-03T10:37:09.618Z,927.33
2018-08-03T10:39:38.872Z,929.47
2018-08-03T10:42:08.136Z,883.17
2018-08-03T10:44:37.295Z,906.07
2018-08-03T10:47:07.173Z,893.90
2018-08-03T10:49:36.455Z,894.73
2018-08-03T10:52:05.914Z,913.30
2018-08-03T10:54:35.266Z,947.40
2018-08-03T10:57:04.612Z,932.47
2018-08-03T10:59:33.922Z,912.87
2018-08-03T11:02:03.225Z,908.57
2018-08-03T11:04:32.427Z,931.90
2018-08-03T11:07:01.552Z,925.30
2018-08-03T11:09:30.735Z,925.60
2018-08-03T11:11:59.897Z,891.63
2018-08-03T11:14:28.993Z,919.90
2018-08-03T11:16:58.058Z,878.43
2018-08-03T11:19:28.343Z,843.03
2018-08-03T11:21:57.851Z,873.73
2018-08-03T11:24:26.994Z,831.53
2018-08-03T11:26:56.128Z,815.87
2018-08-03T11:29:25.538Z,818.17
2018-08-03T11:31:55.026Z,884.30
2018-08-03T11:34:24.268Z,876.43
2018-08-03T11:36:53.450Z,874.43
2018-08-03T11:39:22.559Z,894.30
2018-08-03T11:41:51.768Z,862.13
2018-08-03T11:44:21.018Z,869.40
2018-08-03T11:46:50.336Z,821.17
2018-08-03T11:49:19.661Z,862.10
2018-08-03T11:51:48.851Z,857.27
2018-08-03T11:54:18.032Z,856.57
2018-08-03T11:56:46.815Z,857.17
2018-08-03T11:59:15.515Z,916.87
2018-08-03T12:01:44.657Z,932.63
2018-08-03T12:04:13.909Z,910.67
2018-08-03T12:06:42.734Z,927.40
2018-08-03T12:09:12.082Z,929.87
2018-08-03T12:11:41.189Z,931.60
2018-08-03T12:14:10.573Z,920.27
2018-08-03T12:16:39.764Z,893.30
2018-08-03T12:19:08.992Z,927.97
2018-08-03T12:21:38.635Z,915.57
2018-08-03T12:24:08.025Z,888.40
2018-08-03T12:26:37.175Z,871.77
2018-08-03T12:29:06.513Z,865.00
2018-08-03T12:31:35.756Z,860.43
2018-08-03T12:34:04.992Z,900.60
2018-08-03T12:36:34.256Z,884.77
2018-08-03T12:39:03.685Z,883.63
2018-08-03T12:41:33.196Z,884.20
2018-08-03T12:44:02.499Z,883.90
2018-08-03T12:46:32.077Z,883.47
2018-08-03T12:49:01.231Z,885.70
2018-08-03T12:51:30.718Z,892.53
2018-08-03T12:53:59.963Z,906.33
2018-08-03T12:56:29.275Z,943.37
2018-08-03T12:58:58.404Z,968.63
2018-08-03T13:01:27.834Z,954.03
2018-08-03T13:03:56.633Z,974.10
2018-08-03T13:06:25.762Z,948.83
2018-08-03T13:08:54.895Z,967.70
2018-08-03T13:11:24.171Z,969.17
2018-08-03T13:13:53.524Z,973.30
2018-08-03T13:16:22.813Z,981.87
2018-08-03T13:18:52.113Z,994.23
2018-08-03T13:21:32.624Z,985.03
2018-08-03T13:24:02.596Z,972.77
2018-08-03T13:26:32.038Z,990.90
2018-08-03T13:29:01.519Z,991.57
2018-08-03T13:31:31.338Z,962.93
2018-08-03T13:34:00.807Z,982.73
2018-08-03T13:36:31.184Z,988.17
2018-08-03T13:39:00.528Z,985.03
2018-08-03T13:41:29.705Z,981.07
2018-08-03T13:43:58.997Z,965.13
2018-08-03T13:46:28.210Z,975.10
2018-08-03T13:48:57.750Z,895.07
2018-08-03T13:51:27.040Z,914.57
2018-08-03T13:53:56.360Z,898.60
2018-08-03T13:56:25.542Z,901.37
2018-08-03T13:58:54.941Z,893.73
2018-08-03T14:01:37.451Z,903.50
2018-08-03T14:04:07.000Z,871.93
2018-08-03T14:06:36.102Z,905.57
2018-08-03T14:09:06.653Z,918.30
2018-08-03T14:11:36.012Z,906.47
2018-08-03T14:14:05.407Z,920.00
2018-08-03T14:16:34.715Z,922.20
2018-08-03T14:19:04.219Z,931.07
2018-08-03T14:21:33.736Z,941.77
2018-08-03T14:24:03.270Z,917.23
2018-08-03T14:26:32.500Z,940.27
2018-08-03T14:29:01.784Z,909.77
2018-08-03T14:31:31.165Z,897.97
2018-08-03T14:34:00.281Z,905.50
2018-08-03T14:36:29.755Z,915.60
2018-08-03T14:38:59.226Z,902.17
2018-08-03T14:41:28.570Z,896.20
2018-08-03T14:43:57.838Z,914.97
2018-08-03T14:46:27.361Z,898.03
2018-08-03T14:48:56.547Z,916.97
2018-08-03T14:51:25.705Z,900.63
2018-08-03T14:53:54.956Z,903.27
2018-08-03T14:56:24.316Z,903.87
2018-08-03T14:58:53.901Z,936.57
2018-08-03T15:01:23.150Z,902.93
2018-08-03T15:03:53.025Z,923.67
2018-08-03T15:06:22.240Z,916.00
2018-08-03T15:08:51.508Z,919.33
2018-08-03T15:11:20.683Z,892.00
2018-08-03T15:13:50.067Z,893.87
2018-08-03T15:16:19.199Z,888.90
2018-08-03T15:18:48.363Z,920.73
2018-08-03T15:21:17.638Z,899.63
2018-08-03T15:23:46.806Z,873.60
2018-08-03T15:26:15.926Z,902.37
2018-08-03T15:28:45.110Z,897.40
2018-08-03T15:31:14.369Z,866.97
2018-08-03T15:33:43.628Z,925.70
2018-08-03T15:36:12.886Z,923.53
2018-08-03T15:38:42.160Z,891.90
2018-08-03T15:41:11.433Z,910.60
2018-08-03T15:43:40.654Z,903.47
2018-08-03T15:46:09.755Z,904.37
2018-08-03T15:48:38.770Z,898.60
2018-08-03T15:51:07.754Z,889.30
2018-08-03T15:53:37.027Z,918.20
2018-08-03T15:56:06.302Z,910.27
2018-08-03T15:58:35.764Z,895.70
2018-08-03T16:01:04.978Z,911.97
2018-08-03T16:03:34.089Z,915.17
2018-08-03T16:06:03.494Z,916.83
2018-08-03T16:08:32.724Z,930.37
2018-08-03T16:11:02.206Z,908.70
2018-08-03T16:13:31.480Z,900.50
2018-08-03T16:16:01.636Z,927.07
2018-08-03T16:18:31.178Z,959.07
2018-08-03T16:21:00.568Z,957.63
2018-08-03T16:23:30.102Z,942.43
2018-08-03T16:25:59.276Z,939.03
2018-08-03T16:28:28.459Z,958.30
2018-08-03T16:30:57.852Z,953.63
2018-08-03T16:33:27.080Z,932.00
2018-08-03T16:35:56.345Z,927.77
2018-08-03T16:38:25.590Z,937.67
2018-08-03T16:40:55.094Z,898.80
2018-08-03T16:43:24.265Z,931.90
2018-08-03T16:45:53.563Z,929.27
2018-08-03T16:48:22.800Z,903.63
2018-08-03T16:50:51.951Z,911.17
2018-08-03T16:53:21.195Z,935.07
2018-08-03T16:55:50.630Z,974.83
2018-08-03T16:58:19.982Z,908.93
2018-08-03T17:00:49.367Z,970.97
2018-08-03T17:03:18.509Z,903.70
2018-08-03T17:05:47.771Z,900.80
2018-08-03T17:08:17.024Z,909.67
2018-08-03T17:10:46.244Z,999.90
2018-08-03T17:13:15.421Z,918.33
2018-08-03T17:15:44.777Z,924.83
2018-08-03T17:18:14.094Z,906.77
2018-08-03T17:20:43.287Z,887.90
2018-08-03T17:23:12.443Z,904.47
2018-08-03T17:25:41.651Z,890.93
2018-08-03T17:28:11.254Z,903.60
2018-08-03T17:30:40.554Z,883.93
2018-08-03T17:33:10.043Z,872.33
2018-08-03T17:35:39.230Z,999.43
2018-08-03T17:38:08.784Z,992.17
2018-08-03T17:40:37.985Z,956.90
2018-08-03T17:43:07.240Z,928.87
2018-08-03T17:45:36.475Z,902.80
2018-08-03T17:48:05.658Z,868.67
2018-08-03T17:50:34.838Z,905.20
2018-08-03T17:53:04.067Z,869.27
2018-08-03T17:55:33.680Z,863.60
2018-08-03T17:58:03.314Z,887.40
2018-08-03T18:00:32.462Z,881.80
2018-08-03T18:03:01.814Z,904.60
2018-08-03T18:05:31.122Z,913.70
2018-08-03T18:08:00.250Z,924.77
2018-08-03T18:10:29.366Z,891.33
2018-08-03T18:12:58.724Z,910.87
2018-08-03T18:15:27.990Z,906.93
2018-08-03T18:17:57.275Z,893.90
2018-08-03T18:20:26.581Z,888.70
2018-08-03T18:22:55.783Z,888.27
2018-08-03T18:25:25.021Z,936.80
2018-08-03T18:27:54.271Z,887.40
2018-08-03T18:30:23.659Z,881.87
2018-08-03T18:32:53.190Z,873.03
2018-08-03T18:35:22.516Z,848.20
2018-08-03T18:37:51.694Z,918.20
2018-08-03T18:40:21.061Z,902.37
2018-08-03T18:42:50.337Z,897.43
2018-08-03T18:45:19.905Z,885.77
2018-08-03T18:47:49.076Z,888.93
2018-08-03T18:50:18.259Z,888.90
2018-08-03T18:52:47.497Z,879.73
2018-08-03T18:55:16.843Z,877.37
2018-08-03T18:57:46.064Z,861.90
2018-08-03T19:00:15.474Z,880.80
2018-08-03T19:02:45.458Z,848.30
2018-08-03T19:05:14.810Z,838.87
2018-08-03T19:07:44.015Z,865.17
2018-08-03T19:10:13.350Z,850.93
2018-08-03T19:12:42.580Z,855.90
2018-08-03T19:15:11.897Z,854.00
2018-08-03T19:17:41.063Z,846.17
2018-08-03T19:20:10.340Z,808.67
2018-08-03T19:22:39.530Z,811.57
2018-08-03T19:25:09.136Z,816.43
2018-08-03T19:27:38.623Z,829.47
2018-08-03T19:30:07.838Z,795.93
2018-08-03T19:32:37.009Z,773.73
2018-08-03T19:35:06.600Z,794.53
2018-08-03T19:37:35.833Z,772.67
2018-08-03T19:40:06.121Z,710.97
2018-08-03T19:42:35.524Z,683.10
2018-08-03T19:45:05.445Z,733.50
2018-08-03T19:47:34.541Z,706.80
2018-08-03T19:50:03.843Z,696.90
2018-08-03T19:52:33.136Z,667.63
2018-08-03T19:55:02.342Z,658.80
2018-08-03T19:57:31.507Z,636.03
2018-08-03T20:00:00.715Z,643.80
2018-08-03T20:02:29.920Z,654.13
2018-08-03T20:04:59.127Z,643.03
2018-08-03T20:07:28.674Z,623.23
2018-08-03T20:09:57.980Z,657.53
2018-08-03T20:12:27.973Z,636.83
2018-08-03T20:14:57.367Z,634.70
2018-08-03T20:17:26.480Z,632.90
2018-08-03T20:19:55.932Z,662.03
2018-08-03T20:22:25.264Z,661.83
2018-08-03T20:24:54.754Z,669.93
2018-08-03T20:27:23.583Z,667.57
2018-08-03T20:29:52.928Z,676.80
2018-08-03T20:32:22.374Z,675.83
2018-08-03T20:34:51.717Z,695.07
2018-08-03T20:37:21.072Z,669.60
2018-08-03T20:39:51.090Z,675.27
2018-08-03T20:42:20.622Z,674.97
2018-08-03T20:44:50.146Z,661.33
2018-08-03T20:47:19.625Z,684.03
2018-08-03T20:49:48.913Z,665.27
2018-08-03T20:52:18.416Z,638.90
2018-08-03T20:54:47.586Z,652.83
2018-08-03T20:57:16.973Z,654.07
2018-08-03T20:59:46.302Z,678.67
2018-08-03T21:02:15.657Z,657.17
2018-08-03T21:04:45.166Z,632.67
2018-08-03T21:07:14.909Z,634.00
2018-08-03T21:09:44.541Z,636.27
2018-08-03T21:12:13.766Z,623.80
2018-08-03T21:14:43.204Z,604.63
2018-08-03T21:17:12.426Z,597.73
2018-08-03T21:19:41.744Z,613.47
2018-08-03T21:22:11.305Z,585.37
2018-08-03T21:24:40.157Z,605.30
2018-08-03T21:27:09.443Z,622.80
2018-08-03T21:29:38.662Z,621.10
2018-08-03T21:32:07.894Z,609.77
2018-08-03T21:34:37.060Z,625.70
2018-08-03T21:37:06.592Z,593.33
2018-08-03T21:39:35.878Z,613.30
2018-08-03T21:42:05.054Z,571.80
2018-08-03T21:44:34.278Z,564.50
2018-08-03T21:47:03.342Z,556.03
2018-08-03T21:49:32.573Z,565.57
2018-08-03T21:52:01.631Z,550.23
2018-08-03T21:54:30.720Z,600.87
2018-08-03T21:56:59.959Z,620.13
2018-08-03T21:59:29.284Z,602.77
2018-08-03T22:01:58.512Z,602.33
2018-08-03T22:04:27.602Z,564.17
2018-08-03T22:06:57.079Z,562.40
2018-08-03T22:09:26.268Z,596.17
2018-08-03T22:11:55.198Z,593.33
2018-08-03T22:14:24.207Z,564.60
2018-08-03T22:16:53.407Z,571.67
2018-08-03T22:19:22.598Z,584.00
2018-08-03T22:21:51.792Z,596.30
2018-08-03T22:24:21.111Z,580.00
2018-08-03T22:26:50.287Z,534.13
2018-08-03T22:29:19.526Z,527.70
2018-08-03T22:31:48.827Z,520.80
2018-08-03T22:34:18.003Z,525.67
2018-08-03T22:36:47.451Z,513.77
2018-08-03T22:39:16.629Z,546.20
2018-08-03T22:41:45.802Z,499.00
2018-08-03T22:44:14.911Z,501.40
2018-08-03T22:46:44.274Z,522.50
2018-08-03T22:49:13.527Z,529.00
2018-08-03T22:51:43.012Z,500.37
2018-08-03T22:54:12.031Z,473.97
2018-08-03T22:56:41.204Z,495.57
2018-08-03T22:59:10.143Z,511.63
2018-08-03T23:01:39.395Z,474.70
2018-08-03T23:04:08.805Z,551.37
2018-08-03T23:06:37.946Z,535.97
2018-08-03T23:09:08.351Z,502.70
2018-08-03T23:11:37.467Z,480.43
2018-08-03T23:14:06.882Z,488.53
2018-08-03T23:16:36.001Z,515.73
2018-08-03T23:19:05.220Z,495.77
2018-08-03T23:21:34.668Z,510.40
2018-08-03T23:24:04.040Z,488.20
2018-08-03T23:26:33.338Z,478.80
2018-08-03T23:29:02.499Z,461.83
2018-08-03T23:31:31.740Z,488.63
2018-08-03T23:34:01.035Z,472.90
2018-08-03T23:36:30.283Z,447.47
2018-08-03T23:38:59.535Z,468.30
2018-08-03T23:41:28.707Z,462.83
2018-08-03T23:43:57.991Z,479.50
2018-08-03T23:46:27.233Z,494.00
2018-08-03T23:48:56.422Z,490.33
2018-08-03T23:51:25.590Z,537.13
2018-08-03T23:53:54.704Z,512.70
2018-08-03T23:56:23.855Z,514.93
2018-08-03T23:58:53.105Z,507.83
